Time;durP1;ratioP1;P1;durP2;ratioP2;P2;SDS_P1;SDS_P2;PMS_P1;PMS_P2;Temp;Humidity;BMP_temperature;BMP_pressure;BME280_temperature;BME280_humidity;BME280_pressure;Samples;Min_cycle;Max_cycle;Signal;HPM_P1;HPM_P2
2024/02/07 00:00:23;;;;;;;8.63;5.25;;;;;;;7.17;100.00;98282.82;1667543;85;25639;-45
2024/02/07 00:02:52;;;;;;;10.95;5.03;;;;;;;7.21;100.00;98286.39;1664568;86;25883;-45
2024/02/07 00:05:18;;;;;;;8.85;4.95;;;;;;;7.25;100.00;98278.44;1664415;86;25473;-45
2024/02/07 00:07:50;;;;;;;10.53;4.80;;;;;;;7.26;100.00;98288.09;1664527;86;25587;-45
2024/02/07 00:10:21;;;;;;;9.23;4.70;;;;;;;7.28;100.00;98271.83;1664221;86;25642;-44
2024/02/07 00:12:48;;;;;;;10.25;4.80;;;;;;;7.29;100.00;98272.06;1664604;86;25670;-45
2024/02/07 00:15:17;;;;;;;8.48;4.22;;;;;;;7.32;100.00;98273.85;1666567;85;28383;-45
2024/02/07 00:17:47;;;;;;;8.13;4.67;;;;;;;7.33;100.00;98267.36;1664469;86;25705;-45
2024/02/07 00:20:21;;;;;;;;;;;;;;;7.34;100.00;98275.64;1666975;86;25656;-45
2024/02/07 00:22:49;;;;;;;22.85;20.77;;;;;;;7.38;100.00;98249.66;1663525;85;26068;-45
2024/02/07 00:25:22;;;;;;;11.28;5.00;;;;;;;7.40;100.00;98254.13;1664489;86;25492;-46
2024/02/07 00:27:49;;;;;;;8.88;4.42;;;;;;;7.44;100.00;98285.41;1664554;86;27338;-46
2024/02/07 00:30:17;;;;;;;5.47;4.28;;;;;;;7.49;100.00;98253.44;1664743;86;25981;-46
2024/02/07 00:32:46;;;;;;;;;;;;;;;7.53;100.00;98258.95;1666971;86;25442;-45
2024/02/07 00:35:13;;;;;;;8.48;4.30;;;;;;;7.57;100.00;98252.54;1664563;86;25629;-47
2024/02/07 00:37:41;;;;;;;5.83;4.08;;;;;;;7.60;100.00;98240.33;1664533;86;25499;-48
2024/02/07 00:40:15;;;;;;;9.63;4.27;;;;;;;7.65;100.00;98248.94;1670260;85;27716;-49
2024/02/07 00:42:46;;;;;;;8.85;4.28;;;;;;;7.70;100.00;98247.16;1664730;85;25644;-49
2024/02/07 00:45:15;;;;;;;7.22;4.47;;;;;;;7.79;99.60;98247.80;1664485;86;25898;-49
2024/02/07 00:47:46;;;;;;;8.43;4.50;;;;;;;7.85;99.77;98242.41;1664434;86;26617;-44
2024/02/07 00:50:19;;;;;;;8.03;4.40;;;;;;;7.88;99.69;98232.29;1664940;86;25596;-44
2024/02/07 00:52:46;;;;;;;7.22;4.08;;;;;;;7.93;99.22;98224.55;1664547;86;27241;-46
2024/02/07 00:55:16;;;;;;;9.33;3.83;;;;;;;7.96;98.86;98221.17;1664391;86;25619;-45
2024/02/07 00:57:42;;;;;;;7.37;4.20;;;;;;;7.99;97.80;98230.70;1662413;86;25445;-44
2024/02/07 01:00:18;;;;;;;6.95;3.80;;;;;;;8.04;97.85;98229.11;1664226;86;25661;-45
2024/02/07 01:02:47;;;;;;;7.00;3.80;;;;;;;8.09;98.08;98220.02;1667859;85;25509;-44
2024/02/07 01:05:15;;;;;;;6.37;3.60;;;;;;;8.12;97.51;98219.88;1664389;86;28719;-46
2024/02/07 01:07:42;;;;;;;9.68;3.62;;;;;;;8.16;97.03;98207.31;1664419;86;25647;-44
2024/02/07 01:10:11;;;;;;;9.33;4.10;;;;;;;8.18;96.92;98191.02;1664486;86;25979;-45
2024/02/07 01:12:37;;;;;;;7.87;3.30;;;;;;;8.22;95.46;98195.14;1664524;86;25510;-48
2024/02/07 01:15:11;;;;;;;7.67;3.50;;;;;;;8.26;96.25;98186.61;1664123;86;25752;-44
2024/02/07 01:17:38;;;;;;;7.83;3.40;;;;;;;8.28;95.86;98205.13;1664487;86;27349;-49
2024/02/07 01:20:13;;;;;;;6.62;3.55;;;;;;;8.28;96.21;98187.05;1664444;86;25994;-45
2024/02/07 01:22:45;;;;;;;6.35;3.60;;;;;;;8.29;95.83;98194.01;1664506;86;25521;-46
2024/02/07 01:25:16;;;;;;;8.65;3.62;;;;;;;8.32;95.45;98192.52;1664417;86;25620;-45
2024/02/07 01:27:43;;;;;;;7.40;3.30;;;;;;;8.32;94.36;98197.34;1663792;86;25454;-48
2024/02/07 01:30:17;;;;;;;9.48;3.70;;;;;;;8.34;93.15;98168.71;1664355;86;27927;-46
2024/02/07 01:32:49;;;;;;;7.55;3.67;;;;;;;8.36;95.32;98171.84;1664370;86;25750;-48
2024/02/07 01:35:23;;;;;;;5.78;3.72;;;;;;;8.35;94.44;98167.59;1664547;86;25707;-45
2024/02/07 01:37:50;;;;;;;7.62;3.50;;;;;;;8.36;94.04;98171.84;1664479;86;25677;-45
2024/02/07 01:40:21;;;;;;;7.05;3.30;;;;;;;8.38;93.89;98160.17;1664467;86;25433;-44
2024/02/07 01:42:52;;;;;;;6.45;3.22;;;;;;;8.37;93.82;98146.48;1664489;86;27212;-48
2024/02/07 01:45:30;;;;;;;4.60;2.83;;;;;;;8.38;93.48;98150.17;1664454;86;25438;-47
2024/02/07 01:48:03;;;;;;;5.65;3.05;;;;;;;8.39;93.95;98147.70;1664374;86;25599;-46
2024/02/07 01:50:36;;;;;;;5.17;3.25;;;;;;;8.39;93.95;98143.67;1666334;85;25967;-47
2024/02/07 01:53:09;;;;;;;4.42;3.05;;;;;;;8.41;93.21;98152.18;1664485;85;25491;-46
2024/02/07 01:55:40;;;;;;;5.75;4.05;;;;;;;8.43;93.48;98137.59;1664420;85;28160;-45
2024/02/07 01:58:08;;;;;;;11.78;3.45;;;;;;;8.45;92.02;98144.22;1640423;86;25541;-49
2024/02/07 02:00:38;;;;;;;4.72;2.85;;;;;;;8.47;92.12;98137.91;1664447;86;25422;-47
2024/02/07 02:03:08;;;;;;;12.58;3.35;;;;;;;8.50;91.93;98114.89;1665298;85;26404;-45
2024/02/07 02:05:40;;;;;;;5.62;3.40;;;;;;;8.53;92.06;98126.30;1664494;86;25644;-48
2024/02/07 02:08:13;;;;;;;6.05;2.98;;;;;;;8.55;91.38;98144.27;1671297;81;27426;-48
2024/02/07 02:10:41;;;;;;;9.60;2.90;;;;;;;8.57;92.01;98129.88;1684772;84;25615;-48
2024/02/07 02:13:15;;;;;;;5.72;3.12;;;;;;;8.56;90.30;98132.34;1684539;85;25442;-45
2024/02/07 02:15:48;;;;;;;6.37;3.47;;;;;;;8.57;91.08;98105.05;1684455;85;25943;-45
2024/02/07 02:18:16;;;;;;;7.20;3.00;;;;;;;8.58;90.26;98112.02;1684543;85;25494;-48
2024/02/07 02:20:47;;;;;;;4.65;2.50;;;;;;;8.60;90.47;98110.33;1684491;85;27708;-47
2024/02/07 02:23:54;;;;;;;6.12;2.83;;;;;;;8.63;89.70;98101.52;1684484;85;25649;-45
2024/02/07 02:26:35;;;;;;;8.08;2.70;;;;;;;8.67;89.63;98102.97;1684610;85;25587;-45
2024/02/07 02:29:20;;;;;;;4.72;2.20;;;;;;;8.69;89.62;98112.27;1683831;85;26218;-44
2024/02/07 02:31:49;;;;;;;7.05;2.47;;;;;;;8.72;89.13;98077.10;1678870;85;25761;-48
2024/02/07 02:34:20;;;;;;;7.47;2.37;;;;;;;8.73;88.17;98105.03;1684461;85;28097;-45
2024/02/07 02:36:54;;;;;;;5.05;3.05;;;;;;;8.76;88.21;98089.51;1684411;85;26025;-45
2024/02/07 02:39:22;;;;;;;5.72;2.62;;;;;;;8.78;87.88;98095.91;1684563;85;25633;-49
2024/02/07 02:41:55;;;;;;;5.97;2.87;;;;;;;8.77;87.38;98077.61;1684651;85;26092;-46
2024/02/07 02:44:25;;;;;;;4.70;2.37;;;;;;;8.80;88.35;98070.72;1684619;85;25482;-45
2024/02/07 02:46:54;;;;;;;5.17;2.83;;;;;;;8.78;88.51;98077.84;1684686;85;27739;-47
2024/02/07 02:49:23;;;;;;;4.33;2.80;;;;;;;8.78;88.17;98076.48;1684611;85;25588;-46
2024/02/07 02:51:51;;;;;;;9.73;2.45;;;;;;;8.78;88.30;98075.69;1684619;85;25548;-46
2024/02/07 02:54:18;;;;;;;9.45;2.20;;;;;;;8.78;87.98;98064.91;1684513;85;26020;-45
2024/02/07 02:56:46;;;;;;;5.87;2.90;;;;;;;8.78;88.47;98093.20;1684588;85;25476;-46
2024/02/07 02:59:14;;;;;;;3.35;2.30;;;;;;;8.78;87.55;98079.73;1684088;85;27239;-49
2024/02/07 03:01:42;;;;;;;8.13;2.52;;;;;;;8.77;88.17;98062.78;1684506;85;25593;-46
2024/02/07 03:04:15;;;;;;;12.25;3.02;;;;;;;8.77;87.75;98057.97;1684482;85;25585;-47
2024/02/07 03:06:59;;;;;;;6.15;2.50;;;;;;;8.77;87.81;98043.91;1684241;85;25958;-45
2024/02/07 03:09:33;;;;;;;5.17;2.70;;;;;;;8.77;85.97;98066.05;1684700;85;25418;-44
2024/02/07 03:11:59;;;;;;;6.75;2.35;;;;;;;8.77;86.86;98018.30;1684585;85;28413;-44
2024/02/07 03:14:26;;;;;;;5.58;2.60;;;;;;;8.78;86.89;98039.30;1684434;85;25680;-45
2024/02/07 03:16:55;;;;;;;5.53;2.27;;;;;;;8.89;87.52;98057.84;1684661;85;25415;-46
2024/02/07 03:19:26;;;;;;;5.15;2.37;;;;;;;8.89;87.52;98057.84;1684525;85;25607;-48
2024/02/07 03:21:56;;;;;;;3.45;1.92;;;;;;;8.80;87.01;98034.33;1684668;85;25475;-45
2024/02/07 03:24:25;;;;;;;6.22;2.45;;;;;;;8.80;86.48;98020.85;1684618;85;27323;-46
2024/02/07 03:26:54;;;;;;;5.85;2.70;;;;;;;8.80;86.79;98010.07;1684386;85;25696;-46
2024/02/07 03:29:22;;;;;;;7.12;2.33;;;;;;;8.82;86.40;98020.50;1684577;85;25606;-46
2024/02/07 03:31:49;;;;;;;6.75;2.30;;;;;;;8.83;86.67;98021.50;1684509;85;25587;-44
2024/02/07 03:34:16;;;;;;;4.12;2.17;;;;;;;8.83;85.67;98045.77;1684553;85;25659;-46
2024/02/07 03:36:46;;;;;;;5.85;2.65;;;;;;;8.83;86.24;98032.28;1684532;85;28348;-46
2024/02/07 03:39:13;;;;;;;4.05;2.55;;;;;;;8.86;86.66;98028.11;1684445;85;25615;-47
2024/02/07 03:41:45;;;;;;;10.15;2.60;;;;;;;8.89;85.45;98018.75;1684586;85;25611;-44
2024/02/07 03:44:15;;;;;;;6.03;2.10;;;;;;;8.91;84.35;97996.83;1684478;85;25609;-46
2024/02/07 03:46:44;;;;;;;6.58;2.22;;;;;;;8.93;84.03;98002.65;1684645;85;25628;-46
2024/02/07 03:49:12;;;;;;;5.35;2.42;;;;;;;8.96;83.55;98014.08;1684481;85;27864;-46
2024/02/07 03:51:40;;;;;;;6.62;2.15;;;;;;;8.96;84.47;97992.52;1684540;85;25808;-46
2024/02/07 03:54:09;;;;;;;5.78;2.22;;;;;;;8.96;84.82;97982.50;1684538;85;25555;-46
2024/02/07 03:56:37;;;;;;;3.30;2.22;;;;;;;8.97;84.78;97990.81;1684489;85;25656;-47
2024/02/07 03:59:08;;;;;;;4.85;2.15;;;;;;;8.97;84.61;97996.20;1684576;85;25426;-46
2024/02/07 04:01:38;;;;;;;6.03;2.17;;;;;;;8.98;84.71;97986.19;1684517;85;27659;-45
2024/02/07 04:04:08;;;;;;;4.45;2.08;;;;;;;8.98;83.74;97987.54;1684524;85;26207;-48
2024/02/07 04:06:36;;;;;;;6.15;2.42;;;;;;;8.98;84.90;97995.05;1684879;85;25473;-44
2024/02/07 04:09:05;;;;;;;4.03;2.27;;;;;;;8.96;84.15;97990.59;1684615;85;25676;-46
2024/02/07 05:17:23;;;;;;;0.70;0.60;;;;;;;7.11;92.49;98087.33;1688944;84;26013;-47
2024/02/07 05:19:52;;;;;;;0.70;0.50;;;;;;;6.90;92.55;98093.42;1688227;84;25560;-43
2024/02/07 05:22:56;;;;;;;1.75;0.40;;;;;;;6.73;92.90;98108.66;1905607;74;34788;-44
2024/02/07 05:30:14;;;;;;;0.50;0.50;;;;;;;6.32;93.67;98127.10;1889376;74;32296;-45
2024/02/07 05:32:39;;;;;;;0.30;0.30;;;;;;;6.20;93.58;98130.55;1859769;76;25450;-46
2024/02/07 05:35:12;;;;;;;0.30;0.30;;;;;;;6.11;93.68;98129.83;1859960;76;27857;-42
2024/02/07 05:37:39;;;;;;;0.35;0.30;;;;;;;5.98;93.74;98125.01;1859844;77;25351;-44
2024/02/07 05:40:13;;;;;;;0.45;0.37;;;;;;;5.87;94.07;98119.22;1860127;76;25578;-42
2024/02/07 05:42:40;;;;;;;0.30;0.30;;;;;;;5.77;94.45;98136.53;1860110;77;25358;-45
2024/02/07 05:46:24;;;;;;;2.05;0.40;;;;;;;5.73;94.91;98129.47;1905542;74;34667;-44
2024/02/07 05:48:52;;;;;;;1.07;0.50;;;;;;;5.59;95.11;98139.91;1860285;76;25390;-44
2024/02/07 05:51:26;;;;;;;0.40;0.40;;;;;;;5.52;95.49;98136.97;1860055;77;27561;-46
2024/02/07 05:54:03;;;;;;;0.40;0.30;;;;;;;5.48;95.60;98144.66;1905558;74;34621;-43
2024/02/07 05:56:30;;;;;;;0.55;0.45;;;;;;;5.30;95.42;98153.39;1859951;77;25434;-43
2024/02/07 05:58:56;;;;;;;2.67;0.60;;;;;;;5.20;95.64;98152.64;1860050;77;28076;-46
2024/02/07 06:01:23;;;;;;;0.65;0.65;;;;;;;5.09;95.68;98150.67;1859931;76;25519;-47
2024/02/07 06:03:53;;;;;;;0.93;0.50;;;;;;;5.04;96.20;98155.68;1859905;76;25776;-45
2024/02/07 06:06:29;;;;;;;2.67;0.50;;;;;;;4.97;96.25;98167.44;1859906;76;25612;-45
2024/02/07 06:08:52;;;;;;;0.85;0.50;;;;;;;4.90;96.59;98170.63;1858447;76;25659;-42
2024/02/07 06:26:17;;;;;;;1.27;0.50;;;;;;;4.80;96.27;98203.13;1925086;74;35048;-45
2024/02/07 06:28:46;;;;;;;2.15;0.60;;;;;;;4.64;96.48;98207.67;1895045;75;25330;-47
2024/02/07 06:31:13;;;;;;;0.90;0.70;;;;;;;4.51;96.48;98202.52;1895050;75;27532;-47
2024/02/07 06:33:40;;;;;;;0.68;0.40;;;;;;;4.40;96.42;98213.57;1894826;75;25572;-44
2024/02/07 06:36:07;;;;;;;1.80;0.72;;;;;;;4.29;96.34;98227.84;1894898;75;25357;-44
2024/02/07 06:38:33;;;;;;;0.50;0.50;;;;;;;4.18;96.01;98211.88;1894900;75;25559;-45
2024/02/07 06:41:00;;;;;;;0.40;0.40;;;;;;;4.02;95.72;98216.94;1894954;75;25364;-45
2024/02/07 06:43:31;;;;;;;2.87;0.70;;;;;;;3.91;95.95;98227.16;1894883;75;27807;-44
2024/02/07 06:45:55;;;;;;;1.85;0.60;;;;;;;3.84;96.10;98228.73;1891928;75;25770;-47
2024/02/07 06:48:22;;;;;;;2.05;0.80;;;;;;;3.77;96.56;98217.73;1894996;75;25597;-43
2024/02/07 06:50:50;;;;;;;0.57;0.55;;;;;;;3.69;96.59;98217.95;1894841;75;25498;-44
2024/02/07 06:53:17;;;;;;;0.90;0.70;;;;;;;3.64;97.03;98226.91;1894894;75;25521;-43
2024/02/07 06:55:44;;;;;;;1.95;0.65;;;;;;;3.60;97.51;98235.88;1894854;75;27668;-44
2024/02/07 06:58:10;;;;;;;2.35;0.60;;;;;;;3.56;97.89;98231.72;1894777;75;25349;-47
2024/02/07 07:00:38;;;;;;;1.22;0.82;;;;;;;3.54;98.14;98225.34;1894859;75;25477;-45
2024/02/07 07:03:05;;;;;;;2.35;1.22;;;;;;;3.56;98.46;98231.72;1894821;75;26287;-44
2024/02/07 07:05:32;;;;;;;1.12;1.10;;;;;;;3.57;99.22;98237.84;1894844;75;25536;-46
2024/02/07 07:07:58;;;;;;;0.78;0.78;;;;;;;3.51;99.05;98226.52;1894875;75;28112;-45
2024/02/07 07:10:26;;;;;;;1.50;1.12;;;;;;;3.48;98.80;98233.27;1894747;75;25724;-46
2024/02/07 07:12:53;;;;;;;1.07;1.00;;;;;;;3.44;98.65;98235.00;1894863;75;25547;-44
2024/02/07 07:15:20;;;;;;;3.58;1.00;;;;;;;3.42;98.92;98235.05;1894854;75;25531;-44
2024/02/07 07:17:47;;;;;;;2.35;1.40;;;;;;;3.40;99.23;98235.92;1822224;78;25610;-46
2024/02/07 07:20:14;;;;;;;2.37;1.20;;;;;;;3.36;99.63;98230.41;1855680;77;28131;-44
2024/02/07 07:22:40;;;;;;;1.52;1.20;;;;;;;3.31;99.42;98216.64;1822015;78;25787;-43
2024/02/07 07:25:08;;;;;;;2.00;1.27;;;;;;;3.27;99.67;98217.04;1858150;77;25528;-45
2024/02/07 07:27:34;;;;;;;1.77;0.88;;;;;;;3.25;99.74;98222.44;1861949;77;25722;-44
2024/02/07 07:30:01;;;;;;;0.80;0.80;;;;;;;3.25;100.00;98231.27;1828210;78;25451;-44
2024/02/07 07:32:28;;;;;;;2.45;0.90;;;;;;;3.21;100.00;98226.28;1828218;78;28547;-44
2024/02/07 07:34:54;;;;;;;2.33;0.98;;;;;;;3.22;100.00;98227.88;1828062;78;26174;-44
2024/02/07 07:37:22;;;;;;;0.93;0.90;;;;;;;3.21;100.00;98231.63;1827644;78;25428;-45
2024/02/07 07:39:49;;;;;;;1.45;0.90;;;;;;;3.21;100.00;98230.30;1827556;78;25456;-43
2024/02/07 07:42:16;;;;;;;2.05;0.78;;;;;;;3.21;100.00;98228.95;1827623;78;25362;-44
2024/02/07 07:44:42;;;;;;;5.03;1.15;;;;;;;3.19;100.00;98227.16;1827548;78;27875;-43
2024/02/07 07:47:09;;;;;;;0.78;0.70;;;;;;;3.19;100.00;98236.50;1827503;78;25496;-45
2024/02/07 07:49:36;;;;;;;2.62;0.70;;;;;;;3.16;100.00;98241.13;1827713;78;25509;-43
2024/02/07 07:52:04;;;;;;;1.60;0.90;;;;;;;3.14;100.00;98245.99;1827505;78;26209;-46
2024/02/07 07:54:31;;;;;;;1.00;0.70;;;;;;;3.11;100.00;98234.03;1827608;78;25630;-44
2024/02/07 07:56:59;;;;;;;1.07;0.78;;;;;;;3.08;100.00;98242.69;1827590;78;28095;-44
2024/02/07 07:59:28;;;;;;;3.15;0.90;;;;;;;3.08;100.00;98234.67;1827713;78;26018;-44
2024/02/07 08:01:58;;;;;;;2.77;0.80;;;;;;;3.08;100.00;98229.86;1827582;78;25544;-44
2024/02/07 08:04:25;;;;;;;1.50;0.72;;;;;;;3.05;100.00;98233.95;1827480;78;25560;-45
2024/02/07 08:06:52;;;;;;;1.62;0.82;;;;;;;3.05;100.00;98239.81;1827673;78;25546;-47
2024/02/07 08:09:20;;;;;;;2.62;1.10;;;;;;;3.07;100.00;98233.08;1827688;78;28075;-43
2024/02/07 08:11:46;;;;;;;2.77;0.90;;;;;;;3.05;100.00;98237.95;1827514;78;25694;-46
2024/02/07 08:14:13;;;;;;;3.00;0.90;;;;;;;3.06;100.00;98236.84;1827589;78;25548;-44
2024/02/07 08:16:42;;;;;;;1.65;1.10;;;;;;;3.04;100.00;98237.70;1827562;78;25611;-44
2024/02/07 08:19:14;;;;;;;2.45;1.00;;;;;;;3.03;100.00;98248.16;1827811;78;25587;-44
2024/02/07 08:21:41;;;;;;;1.60;1.20;;;;;;;3.03;100.00;98251.36;1827584;78;28158;-44
2024/02/07 08:24:08;;;;;;;2.60;1.10;;;;;;;3.03;100.00;98250.03;1827597;78;25645;-45
2024/02/07 08:26:34;;;;;;;5.90;1.12;;;;;;;3.03;100.00;98250.84;1822107;78;25421;-46
2024/02/07 08:29:01;;;;;;;2.52;1.00;;;;;;;3.05;100.00;98245.97;1821464;78;26147;-43
2024/02/07 08:31:28;;;;;;;1.72;1.17;;;;;;;3.05;100.00;98245.16;1821538;78;25435;-47
2024/02/07 08:33:54;;;;;;;1.42;1.20;;;;;;;3.06;100.00;98242.73;1821469;78;28478;-44
2024/02/07 08:36:21;;;;;;;3.92;1.60;;;;;;;3.06;100.00;98231.50;1821373;78;25693;-45
2024/02/07 08:38:48;;;;;;;2.87;1.32;;;;;;;3.08;100.00;98236.00;1821466;78;25632;-46
2024/02/07 08:41:15;;;;;;;4.17;1.35;;;;;;;3.08;100.00;98241.34;1821416;78;25891;-45
2024/02/07 08:43:42;;;;;;;3.83;0.90;;;;;;;3.06;100.00;98238.73;1821514;78;25584;-44
2024/02/07 08:46:08;;;;;;;5.03;1.02;;;;;;;3.05;100.00;98246.50;1821506;78;27506;-44
2024/02/07 08:48:35;;;;;;;2.85;1.10;;;;;;;3.05;100.00;98261.19;1821322;78;25728;-44
2024/02/07 08:51:03;;;;;;;1.62;1.40;;;;;;;3.06;100.00;98242.18;1821460;78;25393;-46
2024/02/07 08:53:29;;;;;;;2.92;1.40;;;;;;;3.07;100.00;98242.43;1821422;78;25541;-47
2024/02/07 08:56:07;;;;;;;2.77;1.50;;;;;;;3.08;100.00;98250.70;1821437;78;25387;-43
2024/02/07 08:58:38;;;;;;;1.55;1.20;;;;;;;3.06;100.00;98241.41;1739798;82;26712;-44
2024/02/07 09:01:05;;;;;;;2.20;1.42;;;;;;;3.06;100.00;98236.06;1745768;82;25799;-45
2024/02/07 09:03:31;;;;;;;3.92;1.52;;;;;;;3.04;100.00;98241.71;1716152;83;25524;-44
2024/02/07 09:05:58;;;;;;;4.62;1.60;;;;;;;3.03;100.00;98232.14;1808600;79;25846;-44
2024/02/07 09:08:24;;;;;;;2.33;1.37;;;;;;;3.05;100.00;98219.78;1808653;79;25497;-44
2024/02/07 09:10:50;;;;;;;3.45;1.25;;;;;;;3.05;100.00;98226.46;1808751;79;27454;-45
2024/02/07 09:13:17;;;;;;;2.85;1.55;;;;;;;3.06;100.00;98220.03;1808566;79;25726;-44
2024/02/07 09:15:44;;;;;;;4.97;1.80;;;;;;;3.07;100.00;98234.42;1808609;79;25519;-45
2024/02/07 09:18:11;;;;;;;3.85;1.85;;;;;;;3.08;100.00;98232.53;1808566;79;25688;-44
2024/02/07 09:20:38;;;;;;;4.00;1.50;;;;;;;3.08;100.00;98245.36;1808684;79;25511;-43
2024/02/07 09:23:04;;;;;;;3.17;1.25;;;;;;;3.12;100.00;98251.64;1808635;79;28324;-47
2024/02/07 09:25:31;;;;;;;3.95;1.60;;;;;;;3.14;100.00;98248.66;1810276;79;26205;-48
2024/02/07 09:27:58;;;;;;;4.03;1.50;;;;;;;3.16;100.00;98251.25;1814337;79;25469;-47
2024/02/07 09:30:24;;;;;;;2.80;2.05;;;;;;;3.18;100.00;98257.63;1814310;79;25585;-44
2024/02/07 09:32:51;;;;;;;9.38;3.27;;;;;;;3.20;100.00;98251.97;1814360;79;25481;-44
2024/02/07 09:35:18;;;;;;;4.03;1.70;;;;;;;3.21;100.00;98256.23;1814315;79;28610;-45
2024/02/07 09:37:45;;;;;;;3.77;1.40;;;;;;;3.25;100.00;98263.33;1814250;79;25939;-44
2024/02/07 09:40:12;;;;;;;3.70;1.85;;;;;;;3.29;100.00;98243.45;1814283;79;25721;-44
2024/02/07 09:42:43;;;;;;;3.77;2.30;;;;;;;3.30;100.00;98237.80;1814300;79;26199;-44
2024/02/07 09:45:14;;;;;;;4.17;1.75;;;;;;;3.32;100.00;98227.58;1814345;79;25441;-44
2024/02/07 09:47:58;;;;;;;3.80;1.65;;;;;;;3.33;99.34;98217.11;1814345;79;27505;-44
2024/02/07 09:50:25;;;;;;;6.42;1.80;;;;;;;3.37;99.47;98246.67;1798393;79;27366;-46
2024/02/07 09:52:53;;;;;;;4.17;2.17;;;;;;;3.41;99.73;98263.68;1814372;79;25590;-44
2024/02/07 09:55:21;;;;;;;6.17;1.87;;;;;;;3.43;99.60;98270.83;1814282;79;25510;-44
2024/02/07 09:57:51;;;;;;;4.80;2.15;;;;;;;3.46;99.60;98271.55;1814328;79;25485;-45
2024/02/07 10:00:19;;;;;;;5.53;2.02;;;;;;;3.50;99.74;98259.12;1814351;79;28576;-44
2024/02/07 10:02:50;;;;;;;4.75;2.65;;;;;;;3.53;99.53;98274.55;1888281;75;25569;-44
2024/02/07 10:05:21;;;;;;;5.72;2.52;;;;;;;3.53;98.47;98273.77;1899197;75;25393;-46
2024/02/07 10:07:52;;;;;;;6.72;2.60;;;;;;;3.51;98.71;98266.05;1900223;75;25796;-44
2024/02/07 10:10:19;;;;;;;7.83;2.58;;;;;;;3.57;98.99;98271.26;1900485;75;25440;-45
2024/02/07 10:12:46;;;;;;;4.70;2.02;;;;;;;3.55;98.72;98268.34;1900556;75;28154;-44
2024/02/07 10:15:13;;;;;;;5.70;2.92;;;;;;;3.60;98.60;98271.98;1900408;75;25346;-44
2024/02/07 10:17:40;;;;;;;7.95;2.40;;;;;;;3.59;98.10;98265.05;1827590;78;25187;-45
2024/02/07 10:20:11;;;;;;;4.70;2.17;;;;;;;3.58;97.77;98274.18;1861247;77;26001;-44
2024/02/07 10:22:42;;;;;;;3.70;2.40;;;;;;;3.60;97.90;98270.08;1861288;77;25634;-43
2024/02/07 10:25:12;;;;;;;4.55;2.25;;;;;;;3.63;98.39;98270.02;1826979;78;27465;-42
2024/02/07 10:27:47;;;;;;;31.10;21.82;;;;;;;3.63;97.63;98264.12;1821393;78;25651;-42
2024/02/07 10:30:15;;;;;;;23.42;14.28;;;;;;;3.68;98.10;98260.52;1854880;77;25654;-44
2024/02/07 10:32:45;;;;;;;7.67;2.80;;;;;;;3.71;97.84;98251.31;1819801;78;25531;-44
2024/02/07 10:35:11;;;;;;;5.00;2.72;;;;;;;3.76;97.90;98264.28;1854861;77;25456;-45
2024/02/07 10:37:44;;;;;;;5.50;2.83;;;;;;;3.85;98.41;98251.72;1821372;78;27976;-45
2024/02/07 10:40:13;;;;;;;6.75;2.37;;;;;;;3.90;98.35;98279.66;1820560;78;26187;-45
2024/02/07 10:42:41;;;;;;;;;;;;;;;3.94;98.11;98276.58;1823997;78;25542;-47
2024/02/07 10:45:15;;;;;;;3.40;2.30;;;;;;;4.03;97.94;98284.60;1821457;78;32425;-43
2024/02/07 10:47:45;;;;;;;4.97;2.35;;;;;;;4.08;97.43;98280.43;1821376;78;25443;-43
2024/02/07 10:50:15;;;;;;;8.20;2.47;;;;;;;4.05;96.70;98269.02;1821259;78;28083;-43
2024/02/07 10:52:44;;;;;;;5.80;3.00;;;;;;;4.04;96.43;98270.14;1821204;78;25900;-43
2024/02/07 10:55:18;;;;;;;6.22;2.70;;;;;;;4.01;96.03;98272.88;1821305;78;25568;-45
2024/02/07 10:57:50;;;;;;;6.58;2.85;;;;;;;3.99;96.16;98264.38;1789025;80;25541;-45
2024/02/07 11:00:21;;;;;;;5.95;3.10;;;;;;;3.97;95.92;98296.02;1789040;80;25567;-47
2024/02/07 11:02:52;;;;;;;4.22;2.60;;;;;;;3.95;96.16;98283.51;1789031;80;27484;-45
2024/02/07 11:05:22;;;;;;;7.30;3.08;;;;;;;3.95;96.02;98288.05;1789048;80;25494;-44
2024/02/07 11:07:50;;;;;;;;;;;;;;;3.90;95.69;98281.77;1791607;80;25461;-44
2024/02/07 11:10:22;;;;;;;6.55;3.05;;;;;;;3.88;95.94;98289.33;1789106;80;25584;-44
2024/02/07 11:12:51;;;;;;;10.03;3.47;;;;;;;3.84;95.45;98280.89;1789189;80;25204;-43
2024/02/07 11:15:18;;;;;;;;;;;;;;;3.84;95.49;98282.23;1791751;80;27829;-43
2024/02/07 11:17:44;;;;;;;9.03;2.92;;;;;;;3.81;95.31;98274.27;1789019;80;26224;-45
2024/02/07 11:20:13;;;;;;;12.95;5.42;;;;;;;3.80;95.97;98278.06;1789015;80;25219;-43
2024/02/07 11:22:45;;;;;;;18.80;10.10;;;;;;;3.84;95.64;98277.66;1789174;80;25516;-45
2024/02/07 11:25:17;;;;;;;7.85;3.42;;;;;;;3.83;95.73;98283.32;1820960;78;25618;-46
2024/02/07 11:27:49;;;;;;;6.28;2.87;;;;;;;3.85;95.51;98277.13;1789077;80;28312;-46
2024/02/07 11:30:19;;;;;;;11.03;3.33;;;;;;;3.86;95.39;98267.98;1821401;78;25855;-46
2024/02/07 11:32:52;;;;;;;7.97;3.50;;;;;;;3.84;95.37;98275.55;1821466;78;25446;-42
2024/02/07 11:35:22;;;;;;;4.55;2.98;;;;;;;3.85;95.24;98271.78;1789115;80;25441;-44
2024/02/07 11:37:53;;;;;;;4.45;2.92;;;;;;;3.88;95.52;98271.13;1789198;80;25623;-44
2024/02/07 11:40:26;;;;;;;11.73;3.35;;;;;;;3.87;95.13;98271.69;1789208;80;28184;-44
2024/02/07 11:42:56;;;;;;;6.65;2.98;;;;;;;3.87;94.98;98274.37;1787788;80;25839;-44
2024/02/07 11:45:22;;;;;;;9.83;3.10;;;;;;;3.89;95.26;98276.73;1788138;80;25567;-45
2024/02/07 11:47:54;;;;;;;7.28;3.25;;;;;;;3.90;94.35;98273.75;1789076;80;25915;-45
2024/02/07 11:50:23;;;;;;;10.00;2.92;;;;;;;3.89;94.58;98268.14;1789241;80;25596;-46
2024/02/07 11:52:54;;;;;;;9.73;3.20;;;;;;;3.91;94.77;98279.88;1789153;80;27593;-43
2024/02/07 11:55:22;;;;;;;10.08;3.30;;;;;;;3.90;94.54;98282.33;1789035;80;25405;-49
2024/02/07 11:57:57;;;;;;;6.72;3.05;;;;;;;3.89;94.54;98266.80;1789094;80;25497;-46
2024/02/07 12:00:27;;;;;;;7.15;3.35;;;;;;;3.90;94.36;98280.43;1789132;80;25552;-44
2024/02/07 12:02:59;;;;;;;8.18;3.17;;;;;;;3.89;94.17;98276.17;1789188;80;25409;-44
2024/02/07 12:05:28;;;;;;;9.35;3.27;;;;;;;3.88;94.09;98281.83;1789069;80;27500;-44
2024/02/07 12:08:00;;;;;;;6.85;3.47;;;;;;;3.88;94.39;98285.31;1789142;80;25582;-44
2024/02/07 12:10:28;;;;;;;8.73;3.40;;;;;;;3.89;94.58;98291.44;1789104;80;25584;-45
2024/02/07 12:12:55;;;;;;;10.28;3.70;;;;;;;3.89;94.39;98286.09;1788839;80;26122;-45
2024/02/07 12:15:28;;;;;;;9.75;3.35;;;;;;;3.90;94.43;98286.34;1788359;80;25399;-46
2024/02/07 12:17:55;;;;;;;6.20;3.60;;;;;;;3.90;94.34;98293.80;1787840;80;27837;-45
2024/02/07 12:20:29;;;;;;;7.12;3.77;;;;;;;3.88;93.94;98294.67;1788717;80;25796;-45
2024/02/07 12:23:04;;;;;;;10.98;3.95;;;;;;;3.90;94.17;98294.36;1789140;80;25405;-45
2024/02/07 12:25:32;;;;;;;12.95;4.00;;;;;;;3.88;93.87;98282.64;1788973;80;26418;-45
2024/02/07 12:28:17;;;;;;;10.93;3.95;;;;;;;3.88;94.01;98292.00;1788950;80;25367;-44
2024/02/07 12:30:44;;;;;;;9.68;5.03;;;;;;;3.89;94.08;98294.89;1789104;80;27540;-45
2024/02/07 12:33:10;;;;;;;9.83;3.70;;;;;;;3.89;93.96;98298.91;1788914;80;25601;-44
2024/02/07 12:35:50;;;;;;;66.35;38.17;;;;;;;3.91;93.90;98279.88;1789137;80;25562;-45
2024/02/07 12:38:16;;;;;;;;;;;;;;;3.98;93.95;98294.13;1822707;78;25632;-45
2024/02/07 12:40:53;;;;;;;8.20;3.92;;;;;;;4.06;94.82;98287.44;1821543;78;25427;-45
2024/02/07 12:43:28;;;;;;;7.67;3.72;;;;;;;4.17;94.53;98289.27;1789178;80;27852;-44
2024/02/07 12:46:05;;;;;;;10.00;4.08;;;;;;;4.24;93.47;98296.79;1821296;78;25577;-43
2024/02/07 12:48:29;;;;;;;12.25;3.60;;;;;;;4.28;93.12;98296.41;1820109;78;25588;-45
2024/02/07 12:50:59;;;;;;;8.75;3.60;;;;;;;4.34;92.93;98291.12;1789118;80;26179;-43
2024/02/07 12:53:29;;;;;;;16.10;4.12;;;;;;;4.38;93.15;98295.31;1789175;80;25558;-43
2024/02/07 12:55:56;;;;;;;8.20;4.12;;;;;;;4.42;92.90;98306.39;1789193;80;28525;-42
2024/02/07 12:58:22;;;;;;;8.18;4.22;;;;;;;4.43;92.60;98307.97;1788903;80;25599;-44
2024/02/07 13:01:01;;;;;;;8.33;3.92;;;;;;;4.43;91.91;98306.63;1789023;80;25447;-44
2024/02/07 13:03:27;;;;;;;9.85;5.12;;;;;;;4.43;92.06;98293.25;1789162;80;25489;-42
2024/02/07 13:05:54;;;;;;;13.70;4.00;;;;;;;4.43;92.05;98317.34;1788943;80;25595;-44
2024/02/07 13:08:23;;;;;;;8.70;4.40;;;;;;;4.46;91.77;98306.54;1789078;80;27807;-43
2024/02/07 13:10:51;;;;;;;7.33;3.70;;;;;;;4.46;91.97;98302.52;1788983;80;25834;-44
2024/02/07 13:13:17;;;;;;;13.05;4.22;;;;;;;4.48;92.33;98309.71;1789072;80;25385;-43
2024/02/07 13:15:46;;;;;;;10.35;3.72;;;;;;;4.54;92.10;98323.16;1788920;80;25410;-44